Time;durP1;ratioP1;P1;durP2;ratioP2;P2;SDS_P1;SDS_P2;PMS_P1;PMS_P2;Temp;Humidity;BMP_temperature;BMP_pressure;BME280_temperature;BME280_humidity;BME280_pressure;Samples;Min_cycle;Max_cycle;Signal;HPM_P1;HPM_P2
2022/05/31 04:16:31;;;;;;;;;;;;;;;11.17;58.39;99479.66;1066877;54;21687;31
2022/05/31 04:18:41;;;;;;;;;;;;;;;11.20;58.14;99476.66;1079994;31;21372;31
2022/05/31 04:25:03;;;;;;;;;;;;;;;11.37;58.06;99475.72;1088612;54;19994;-84
2022/05/31 04:26:04;;;;;;;;;;;;;;;11.34;57.84;99468.00;1088577;54;19962;-83
2022/05/31 04:27:08;;;;;;;;;;;;;;;11.36;57.92;99466.00;1088615;54;19942;-86
2022/05/31 04:28:09;;;;;;;;;;;;;;;11.38;57.91;99471.22;1088601;54;19950;-84
2022/05/31 04:29:13;;;;;;;;;;;;;;;11.39;57.69;99465.69;1088533;54;19934;-84
2022/05/31 04:30:15;;;;;;;;;;;;;;;11.38;57.84;99466.69;1088530;54;19942;-81
2022/05/31 04:42:46;;;;;;;;;;;;;;;11.36;57.77;99467.84;1069151;54;20836;31
2022/05/31 04:48:00;;;;;;;;;;;;;;;11.23;57.80;99465.66;1088654;54;19953;-84
2022/05/31 04:54:17;;;;;;;;;;;;;;;11.22;58.12;99466.66;1088336;54;19935;-81
2022/05/31 04:55:18;;;;;;;;;;;;;;;11.19;58.10;99469.66;1088301;54;19954;-80
2022/05/31 04:56:22;;;;;;;;;;;;;;;11.30;57.56;99469.34;1087990;54;19985;-79
2022/05/31 04:57:24;;;;;;;;;;;;;;;11.32;57.58;99466.50;1088307;54;19950;-82
2022/05/31 04:58:30;;;;;;;;;;;;;;;11.21;57.68;99470.31;1089968;39;20530;-78
2022/05/31 04:59:35;;;;;;;;;;;;;;;11.12;58.10;99465.94;1091927;39;20732;-82
2022/05/31 05:00:36;;;;;;;;;;;;;;;11.11;58.32;99458.91;1088444;54;19950;-83
2022/05/31 05:01:40;;;;;;;;;;;;;;;11.10;58.53;99463.41;1088484;54;19935;-80
2022/05/31 05:02:42;;;;;;;;;;;;;;;11.11;58.48;99462.41;1088455;54;19943;-80
2022/05/31 05:03:46;;;;;;;;;;;;;;;11.10;58.37;99462.59;1088480;54;19983;-80
2022/05/31 05:04:47;;;;;;;;;;;;;;;11.15;58.12;99462.94;1088405;54;19927;-79
2022/05/31 05:05:51;;;;;;;;;;;;;;;11.19;58.23;99456.25;1088399;54;20551;-81
2022/05/31 05:06:55;;;;;;;;;;;;;;;11.22;58.29;99461.28;1088472;54;19942;-83
2022/05/31 05:07:57;;;;;;;;;;;;;;;11.29;57.95;99453.47;1088481;54;19939;-81
2022/05/31 05:09:00;;;;;;;;;;;;;;;11.30;58.01;99442.59;1088438;54;19938;-81
2022/05/31 05:10:04;;;;;;;;;;;;;;;11.33;57.80;99446.75;1088479;54;19933;-83
2022/05/31 05:11:09;;;;;;;;;;;;;;;11.34;57.85;99449.25;1091789;39;20592;-80
2022/05/31 05:12:10;;;;;;;;;;;;;;;11.35;57.72;99445.59;1088266;54;20046;-81
2022/05/31 05:13:14;;;;;;;;;;;;;;;11.39;57.92;99444.28;1088038;54;19973;-83
2022/05/31 05:14:17;;;;;;;;;;;;;;;11.38;57.73;99445.28;1088369;54;19950;-83
2022/05/31 05:15:21;;;;;;;;;;;;;;;11.42;57.65;99440.41;1088455;54;19943;-80
2022/05/31 05:16:23;;;;;;;;;;;;;;;11.42;57.79;99436.91;1088489;54;19941;-82
2022/05/31 05:17:27;;;;;;;;;;;;;;;11.41;57.57;99427.22;1088492;54;19934;-84
2022/05/31 05:18:29;;;;;;;;;;;;;;;11.38;57.60;99434.56;1088273;54;19939;-85
2022/05/31 05:19:33;;;;;;;;;;;;;;;11.34;57.88;99429.72;1088368;54;19949;-83
2022/05/31 05:20:36;;;;;;;;;;;;;;;11.39;57.81;99436.25;1088567;46;19926;-82
2022/05/31 05:21:39;;;;;;;;;;;;;;;11.38;57.80;99431.88;1093607;39;20420;-84
2022/05/31 05:22:40;;;;;;;;;;;;;;;11.34;57.66;99427.84;1088468;54;19950;-81
2022/05/31 05:23:44;;;;;;;;;;;;;;;11.38;57.78;99434.56;1088425;54;20637;-83
2022/05/31 05:24:46;;;;;;;;;;;;;;;11.46;57.94;99436.44;1088451;54;19926;-85
2022/05/31 05:25:50;;;;;;;;;;;;;;;11.53;57.52;99436.56;1088518;54;19946;-84
2022/05/31 05:26:51;;;;;;;;;;;;;;;11.56;57.53;99438.94;1088510;54;19982;-84
2022/05/31 05:27:54;;;;;;;;;;;;;;;11.64;57.27;99435.44;1088522;54;20705;-82
2022/05/31 05:31:33;;;;;;;;;;;;;;;11.64;57.27;99433.59;1088480;54;19950;-84
2022/05/31 05:32:36;;;;;;;;;;;;;;;11.67;57.35;99427.91;1088467;54;20010;-83
2022/05/31 05:33:37;;;;;;;;;;;;;;;11.69;56.97;99431.25;1088434;54;19949;-82
2022/05/31 05:34:41;;;;;;;;;;;;;;;11.68;57.17;99440.28;1088383;54;19938;-81
2022/05/31 05:35:45;;;;;;;;;;;;;;;11.71;57.08;99431.91;1088436;54;19947;-84
2022/05/31 05:36:46;;;;;;;;;;;;;;;11.76;57.14;99430.56;1088393;54;19930;-85
2022/05/31 05:37:50;;;;;;;;;;;;;;;11.82;56.75;99435.25;1088444;54;19949;-85
2022/05/31 05:38:51;;;;;;;;;;;;;;;11.82;57.06;99430.75;1088225;54;19946;-82
2022/05/31 05:39:55;;;;;;;;;;;;;;;11.80;56.85;99427.41;1088365;54;19965;-79
2022/05/31 05:40:56;;;;;;;;;;;;;;;11.86;57.00;99439.28;1088349;54;20515;-81
2022/05/31 05:42:00;;;;;;;;;;;;;;;11.89;56.82;99438.97;1088414;54;19933;-83
2022/05/31 05:43:01;;;;;;;;;;;;;;;12.01;56.86;99432.25;1088441;54;19943;-81
2022/05/31 05:44:05;;;;;;;;;;;;;;;12.11;56.48;99433.91;1088353;54;19979;-85
2022/05/31 05:45:07;;;;;;;;;;;;;;;12.10;55.91;99437.59;1088273;54;19942;-83
2022/05/31 05:46:17;;;;;;;;;;;;;;;12.08;56.37;99440.47;1087997;54;19973;-85
2022/05/31 05:47:18;;;;;;;;;;;;;;;12.10;56.13;99445.63;1088408;54;19930;-83
2022/05/31 05:48:22;;;;;;;;;;;;;;;12.08;56.14;99445.00;1088377;54;19949;-81
2022/05/31 05:49:23;;;;;;;;;;;;;;;12.13;56.29;99437.28;1088366;54;19942;-83
2022/05/31 05:50:27;;;;;;;;;;;;;;;12.19;56.00;99443.78;1088455;54;19942;-83
2022/05/31 05:51:32;;;;;;;;;;;;;;;12.19;55.79;99444.63;1088345;54;20551;-84
2022/05/31 05:52:34;;;;;;;;;;;;;;;12.25;55.88;99437.75;1088385;54;19950;-80
2022/05/31 05:53:38;;;;;;;;;;;;;;;12.28;55.78;99442.78;1088115;54;19934;-82
2022/05/31 05:54:41;;;;;;;;;;;;;;;12.35;55.54;99435.72;1088340;54;19935;-80
2022/05/31 05:55:43;;;;;;;;;;;;;;;12.31;55.57;99445.13;1088320;54;19938;-81
2022/05/31 05:56:46;;;;;;;;;;;;;;;12.27;55.71;99441.09;1088448;54;20002;-81
2022/05/31 06:03:44;;;;;;;;;;;;;;;12.77;54.44;99456.03;1070212;54;20878;31
2022/05/31 06:06:02;;;;;;;;;;;;;;;12.78;54.65;99443.47;1088470;54;21249;-83
2022/05/31 07:58:46;;;;;;;;;;;;;;;17.87;44.46;99385.22;1090180;39;20597;-85
2022/05/31 07:59:50;;;;;;;;;;;;;;;17.98;44.82;99381.09;1088603;39;20455;-84
2022/05/31 08:00:52;;;;;;;;;;;;;;;18.11;44.34;99380.25;1088311;54;19934;-84
2022/05/31 08:01:56;;;;;;;;;;;;;;;18.28;44.21;99385.22;1093279;31;20668;-84
2022/05/31 08:04:02;;;;;;;;;;;;;;;18.33;43.90;99372.72;1088060;54;19958;-85
2022/05/31 08:06:12;;;;;;;;;;;;;;;18.11;43.88;99380.25;1087595;54;19923;-84
2022/05/31 08:07:13;;;;;;;;;;;;;;;17.75;44.26;99376.09;1089219;39;20577;-86
2022/05/31 08:08:18;;;;;;;;;;;;;;;17.80;44.79;99378.19;1088287;54;19990;-86
2022/05/31 08:09:23;;;;;;;;;;;;;;;17.73;44.72;99383.56;1088606;47;19931;-86
2022/05/31 08:10:24;;;;;;;;;;;;;;;18.02;44.24;99373.41;1088346;54;19971;-85
2022/05/31 08:11:28;;;;;;;;;;;;;;;18.28;43.67;99369.78;1092672;39;20538;-85
2022/05/31 08:12:30;;;;;;;;;;;;;;;18.54;43.67;99371.59;1088384;54;19942;-85
2022/05/31 08:13:33;;;;;;;;;;;;;;;18.82;43.30;99365.03;1088351;54;19943;-85
2022/05/31 08:14:41;;;;;;;;;;;;;;;19.05;42.80;99366.41;1090053;39;20564;-85
2022/05/31 08:16:47;;;;;;;;;;;;;;;19.42;41.96;99358.47;1088325;54;19938;-83
2022/05/31 08:18:55;;;;;;;;;;;;;;;19.70;41.25;99356.34;1088313;54;19949;-83
2022/05/31 08:19:59;;;;;;;;;;;;;;;19.70;40.62;99359.91;1088224;54;20010;-84
2022/05/31 08:22:05;;;;;;;;;;;;;;;19.90;40.96;99354.34;1088322;54;19930;-86
2022/05/31 08:23:06;;;;;;;;;;;;;;;19.82;40.79;99361.91;1088291;54;19945;-84
2022/05/31 08:24:11;;;;;;;;;;;;;;;19.59;40.76;99353.34;1088334;54;19946;-84
2022/05/31 08:25:13;;;;;;;;;;;;;;;19.56;41.01;99358.34;1088256;54;19966;-84
2022/05/31 08:26:16;;;;;;;;;;;;;;;19.52;40.95;99357.16;1088261;54;19934;-84
2022/05/31 08:27:20;;;;;;;;;;;;;;;19.28;41.27;99360.44;1088209;54;19935;-85
2022/05/31 08:28:24;;;;;;;;;;;;;;;19.07;41.40;99366.19;1088245;54;19942;-83
2022/05/31 08:29:28;;;;;;;;;;;;;;;19.59;41.14;99363.34;1088200;54;19934;-83
2022/05/31 08:30:35;;;;;;;;;;;;;;;19.83;40.84;99363.56;1088251;54;19965;-85
2022/05/31 08:31:36;;;;;;;;;;;;;;;20.05;40.37;99361.31;1088267;54;19942;-84
2022/05/31 08:32:40;;;;;;;;;;;;;;;20.10;39.76;99356.88;1090204;39;20522;-85
2022/05/31 08:34:47;;;;;;;;;;;;;;;20.52;39.28;99349.94;1087525;54;19945;-84
2022/05/31 08:35:51;;;;;;;;;;;;;;;20.31;39.39;99349.31;1088147;54;19935;-84
2022/05/31 08:36:56;;;;;;;;;;;;;;;20.06;39.25;99347.50;1088073;54;19962;-82
2022/05/31 08:37:57;;;;;;;;;;;;;;;20.29;39.62;99345.19;1088141;54;19955;-85
2022/05/31 08:39:01;;;;;;;;;;;;;;;20.51;39.65;99342.84;1088148;54;19946;-85
2022/05/31 08:40:02;;;;;;;;;;;;;;;20.66;39.11;99346.00;1088236;54;19950;-81
2022/05/31 08:41:12;;;;;;;;;;;;;;;20.54;38.83;99345.97;1088237;54;19942;-84
2022/05/31 08:42:18;;;;;;;;;;;;;;;20.18;39.23;99353.03;1088565;39;20573;-83
2022/05/31 08:43:22;;;;;;;;;;;;;;;20.21;39.77;99340.91;1088292;54;19999;-83
2022/05/31 08:44:37;;;;;;;;;;;;;;;20.04;39.84;99344.19;1088194;54;19994;-83
2022/05/31 08:45:46;;;;;;;;;;;;;;;20.09;40.27;99340.81;1088272;54;19927;-80
2022/05/31 08:46:59;;;;;;;;;;;;;;;20.34;39.77;99335.31;1090291;46;19950;-80
2022/05/31 08:48:09;;;;;;;;;;;;;;;20.45;39.42;99338.34;1089743;46;19947;-83
2022/05/31 08:49:17;;;;;;;;;;;;;;;20.57;39.41;99333.81;1088669;54;19934;-84
2022/05/31 08:51:58;;;;;;;;;;;;;;;20.79;39.27;99341.47;1088544;54;19930;-83
2022/05/31 08:53:08;;;;;;;;;;;;;;;20.77;39.01;99330.03;1094519;31;20626;-84
2022/05/31 08:56:57;;;;;;;;;;;;;;;21.02;38.34;99341.59;1088563;54;19943;-83
2022/05/31 08:58:04;;;;;;;;;;;;;;;21.32;38.67;99327.16;1088613;54;19927;-84
2022/05/31 08:59:10;;;;;;;;;;;;;;;21.45;38.43;99333.41;1088618;54;20586;-85
2022/05/31 09:00:17;;;;;;;;;;;;;;;21.48;38.45;99336.53;1090897;46;19998;-84
2022/05/31 09:01:26;;;;;;;;;;;;;;;21.11;38.13;99338.53;1088578;54;19927;-82
2022/05/31 09:02:29;;;;;;;;;;;;;;;21.01;38.36;99330.97;1088469;54;19966;-83
2022/05/31 09:03:42;;;;;;;;;;;;;;;20.60;39.13;99341.47;1088618;54;20536;-82
2022/05/31 09:04:46;;;;;;;;;;;;;;;20.60;39.58;99343.38;1088506;54;19974;-83
2022/05/31 09:05:52;;;;;;;;;;;;;;;20.37;39.85;99343.00;1088617;54;20186;-81
2022/05/31 09:06:58;;;;;;;;;;;;;;;20.62;39.68;99344.78;1088636;54;19949;-82
2022/05/31 09:08:05;;;;;;;;;;;;;;;20.73;39.51;99335.91;1088510;54;19927;-83
2022/05/31 09:09:13;;;;;;;;;;;;;;;20.51;40.11;99348.28;1088624;54;19939;-83
2022/05/31 09:10:22;;;;;;;;;;;;;;;20.56;39.77;99346.53;1088832;39;20882;-84
2022/05/31 09:11:29;;;;;;;;;;;;;;;20.86;39.46;99344.97;1088353;54;19949;-83
2022/05/31 09:12:38;;;;;;;;;;;;;;;20.78;39.27;99343.38;1088493;54;19942;-81
2022/05/31 09:13:46;;;;;;;;;;;;;;;20.40;40.10;99349.88;1088361;54;19946;-82
2022/05/31 09:14:52;;;;;;;;;;;;;;;20.68;39.41;99349.34;1088582;54;19927;-83
2022/05/31 09:15:58;;;;;;;;;;;;;;;20.85;39.45;99346.00;1088547;54;19931;-81
2022/05/31 09:17:05;;;;;;;;;;;;;;;21.09;39.04;99343.38;1088628;54;19927;-82
2022/05/31 09:18:10;;;;;;;;;;;;;;;21.26;38.88;99338.13;1088558;54;19954;-83
2022/05/31 09:19:17;;;;;;;;;;;;;;;21.34;38.99;99341.34;1088531;54;19927;-85
2022/05/31 09:20:26;;;;;;;;;;;;;;;21.44;38.35;99340.75;1088507;54;19971;-82
2022/05/31 09:21:37;;;;;;;;;;;;;;;21.64;38.17;99339.63;1092547;39;20549;-83
2022/05/31 09:22:41;;;;;;;;;;;;;;;21.83;38.28;99336.81;1088546;54;19986;-83
2022/05/31 09:23:45;;;;;;;;;;;;;;;21.83;38.28;99331.38;1088491;54;19949;-81
2022/05/31 09:24:46;;;;;;;;;;;;;;;21.86;37.59;99334.44;1089115;46;19966;-82
2022/05/31 09:25:55;;;;;;;;;;;;;;;21.40;37.61;99339.56;1088499;54;19927;-84
2022/05/31 09:27:06;;;;;;;;;;;;;;;21.12;38.02;99341.03;1088458;46;19942;-81
2022/05/31 09:28:18;;;;;;;;;;;;;;;21.53;38.12;99343.97;1088362;54;19951;-81
2022/05/31 09:29:23;;;;;;;;;;;;;;;21.70;37.75;99338.69;1088590;54;20661;-81
2022/05/31 09:30:28;;;;;;;;;;;;;;;21.84;37.39;99342.00;1088658;54;19942;-81
2022/05/31 09:31:37;;;;;;;;;;;;;;;21.94;37.29;99342.25;1088745;54;19942;-83
2022/05/31 09:32:59;;;;;;;;;;;;;;;22.07;36.74;99337.63;1097301;46;19939;-81
2022/05/31 09:34:11;;;;;;;;;;;;;;;21.92;36.90;99335.38;1088638;54;19926;-82
2022/05/31 09:35:22;;;;;;;;;;;;;;;21.84;36.45;99339.28;1088331;54;21080;-82
2022/05/31 09:37:37;;;;;;;;;;;;;;;22.02;35.74;99340.22;1088167;54;19942;-78
2022/05/31 09:38:59;;;;;;;;;;;;;;;21.68;36.58;99337.28;1088307;54;19943;-78
2022/05/31 09:40:10;;;;;;;;;;;;;;;21.67;36.84;99336.47;1089024;46;19927;-78
2022/05/31 09:41:17;;;;;;;;;;;;;;;21.75;36.66;99340.69;1088255;54;19939;-77
2022/05/31 09:42:21;;;;;;;;;;;;;;;21.55;37.22;99338.28;1088331;54;19927;-80
2022/05/31 09:43:30;;;;;;;;;;;;;;;21.89;36.35;99331.25;1088030;54;19927;-78
2022/05/31 09:44:37;;;;;;;;;;;;;;;21.99;36.67;99338.00;1087924;54;19949;-78
2022/05/31 09:45:40;;;;;;;;;;;;;;;22.28;35.83;99337.03;1087952;54;19942;-79
2022/05/31 09:46:46;;;;;;;;;;;;;;;22.18;34.67;99333.22;1087911;54;19950;-78
2022/05/31 09:47:48;;;;;;;;;;;;;;;22.01;35.50;99338.59;1087961;54;21173;-78
2022/05/31 09:48:53;;;;;;;;;;;;;;;22.15;34.92;99331.81;1087917;54;20026;-78
2022/05/31 09:49:59;;;;;;;;;;;;;;;22.33;34.96;99335.47;1087862;54;19943;-78
2022/05/31 09:51:13;;;;;;;;;;;;;;;22.39;34.21;99338.06;1088551;31;20508;-79
2022/05/31 09:52:16;;;;;;;;;;;;;;;22.44;33.79;99334.66;1088345;54;19927;-79
2022/05/31 09:57:32;;;;;;;;;;;;;;;22.57;33.10;99339.84;1088344;54;20033;-79
2022/05/31 09:58:38;;;;;;;;;;;;;;;22.71;33.02;99334.94;1088320;54;19949;-80
2022/05/31 09:59:43;;;;;;;;;;;;;;;22.45;33.14;99333.59;1088294;54;19950;-81
2022/05/31 10:01:01;;;;;;;;;;;;;;;22.50;33.29;99333.66;1088369;54;20566;-78
2022/05/31 10:02:12;;;;;;;;;;;;;;;22.35;32.71;99336.06;1088302;54;19942;-78
2022/05/31 10:03:16;;;;;;;;;;;;;;;22.34;32.38;99335.22;1088360;54;20018;-79
2022/05/31 10:04:21;;;;;;;;;;;;;;;22.14;32.93;99338.31;1088344;54;19942;-80
2022/05/31 10:05:28;;;;;;;;;;;;;;;22.28;32.90;99339.75;1088210;54;19982;-79
2022/05/31 10:06:30;;;;;;;;;;;;;;;22.67;32.57;99332.94;1087800;54;19957;-78
2022/05/31 10:07:35;;;;;;;;;;;;;;;22.86;32.61;99326.19;1090084;39;20653;-79
2022/05/31 10:08:39;;;;;;;;;;;;;;;22.88;32.62;99326.78;1088349;54;19938;-79
2022/05/31 10:09:44;;;;;;;;;;;;;;;22.94;32.66;99321.44;1088214;54;19977;-80
2022/05/31 10:10:50;;;;;;;;;;;;;;;23.00;32.47;99325.91;1088345;54;19973;-79
2022/05/31 10:12:03;;;;;;;;;;;;;;;22.81;32.42;99328.84;1088324;47;20881;-80
2022/05/31 10:13:10;;;;;;;;;;;;;;;22.98;32.33;99315.28;1088282;54;19950;-78
2022/05/31 10:14:20;;;;;;;;;;;;;;;22.62;32.80;99319.19;1088329;54;19943;-77
2022/05/31 10:15:39;;;;;;;;;;;;;;;22.73;33.08;99326.50;1088276;54;20255;-78
2022/05/31 10:16:43;;;;;;;;;;;;;;;23.06;32.93;99323.03;1089218;39;20614;-78
2022/05/31 10:17:44;;;;;;;;;;;;;;;23.42;32.47;99317.41;1088317;54;19942;-78
2022/05/31 10:18:52;;;;;;;;;;;;;;;23.66;32.19;99319.97;1088321;54;19943;-78
2022/05/31 10:20:05;;;;;;;;;;;;;;;23.49;31.64;99314.50;1088189;54;19934;-79
2022/05/31 10:21:11;;;;;;;;;;;;;;;23.66;31.48;99312.59;1088282;54;20019;-78
2022/05/31 10:22:15;;;;;;;;;;;;;;;23.37;31.40;99306.41;1088001;54;19942;-78
2022/05/31 10:23:22;;;;;;;;;;;;;;;23.39;31.69;99307.00;1087884;54;20547;-79
2022/05/31 10:24:26;;;;;;;;;;;;;;;23.27;31.75;99314.41;1088163;54;19935;-77
2022/05/31 10:25:31;;;;;;;;;;;;;;;23.38;31.39;99309.97;1088246;54;19935;-78
2022/05/31 10:26:38;;;;;;;;;;;;;;;23.60;31.83;99305.41;1088253;54;19942;-79
2022/05/31 10:27:39;;;;;;;;;;;;;;;23.89;31.49;99308.03;1088236;54;19950;-78
2022/05/31 10:28:44;;;;;;;;;;;;;;;23.67;31.22;99306.06;1090139;46;20719;-79
2022/05/31 10:29:50;;;;;;;;;;;;;;;23.38;31.25;99307.25;1089594;46;19958;-80
2022/05/31 10:30:51;;;;;;;;;;;;;;;23.97;30.62;99304.09;1088318;54;19939;-78
2022/05/31 10:31:56;;;;;;;;;;;;;;;24.28;30.02;99299.03;1089068;46;19994;-79
2022/05/31 10:33:01;;;;;;;;;;;;;;;24.40;29.71;99302.47;1088153;54;20618;-78
2022/05/31 10:34:04;;;;;;;;;;;;;;;23.94;30.31;99304.56;1088243;54;19942;-78
2022/05/31 10:35:12;;;;;;;;;;;;;;;24.10;30.32;99302.91;1088059;54;19938;-78
2022/05/31 10:36:20;;;;;;;;;;;;;;;24.34;29.98;99299.91;1088100;54;19943;-77
2022/05/31 10:37:24;;;;;;;;;;;;;;;24.38;30.00;99304.59;1087772;54;19942;-78
2022/05/31 10:38:31;;;;;;;;;;;;;;;24.59;29.90;99299.41;1088023;54;19943;-79
2022/05/31 10:39:35;;;;;;;;;;;;;;;24.55;29.98;99303.72;1087832;54;19942;-80
2022/05/31 10:40:43;;;;;;;;;;;;;;;24.26;30.39;99302.00;1087921;54;19956;-78
2022/05/31 10:41:47;;;;;;;;;;;;;;;24.35;30.54;99298.84;1087827;54;19998;-77
2022/05/31 10:42:50;;;;;;;;;;;;;;;23.87;30.83;99298.44;1087842;54;19942;-79
2022/05/31 10:43:59;;;;;;;;;;;;;;;24.12;30.53;99298.81;1088193;46;19998;-80
2022/05/31 10:45:04;;;;;;;;;;;;;;;23.95;30.81;99300.78;1087781;54;19950;-80
2022/05/31 10:46:11;;;;;;;;;;;;;;;23.74;31.13;99305.91;1088212;54;19949;-80
2022/05/31 10:47:16;;;;;;;;;;;;;;;23.58;31.19;99298.56;1088281;54;19943;-79
2022/05/31 10:48:20;;;;;;;;;;;;;;;23.45;31.67;99299.72;1088265;54;19950;-80
2022/05/31 10:49:25;;;;;;;;;;;;;;;23.12;31.70;99304.88;1088260;54;19939;-80
2022/05/31 10:50:33;;;;;;;;;;;;;;;23.02;32.23;99300.06;1088454;46;19974;-79
2022/05/31 10:51:50;;;;;;;;;;;;;;;23.18;32.03;99309.38;1088131;54;19942;-78
2022/05/31 10:52:58;;;;;;;;;;;;;;;23.21;32.13;99302.59;1089295;46;19950;-78
2022/05/31 10:54:07;;;;;;;;;;;;;;;23.46;31.66;99291.28;1090574;39;20511;-78
2022/05/31 10:55:22;;;;;;;;;;;;;;;23.33;31.49;99297.91;1088184;54;19942;-79
2022/05/31 10:56:30;;;;;;;;;;;;;;;22.83;32.11;99302.19;1088090;54;19967;-79
2022/05/31 10:57:48;;;;;;;;;;;;;;;22.95;31.81;99307.56;1088295;54;19954;-78
2022/05/31 10:59:01;;;;;;;;;;;;;;;22.61;31.59;99293.03;1088265;54;19942;-78
2022/05/31 11:00:04;;;;;;;;;;;;;;;22.73;31.60;99302.81;1087942;54;19934;-80
2022/05/31 11:01:17;;;;;;;;;;;;;;;22.55;31.48;99308.44;1087866;54;19942;-78
2022/05/31 11:02:31;;;;;;;;;;;;;;;22.38;30.68;99311.09;1087859;54;19942;-79
2022/05/31 11:03:38;;;;;;;;;;;;;;;22.74;30.52;99309.91;1087821;54;19938;-77
2022/05/31 11:04:47;;;;;;;;;;;;;;;22.77;30.09;99300.41;1087861;54;19950;-79
2022/05/31 11:05:59;;;;;;;;;;;;;;;22.96;30.53;99308.38;1088375;46;20090;-78
2022/05/31 11:07:13;;;;;;;;;;;;;;;23.13;30.43;99306.53;1087848;54;19943;-78
2022/05/31 11:12:34;;;;;;;;;;;;;;;23.05;30.80;99310.50;1088306;54;20045;-79
2022/05/31 11:13:41;;;;;;;;;;;;;;;22.87;30.98;99302.53;1088194;54;19977;-78
2022/05/31 11:15:03;;;;;;;;;;;;;;;22.56;31.37;99304.66;1088187;54;19950;-79
2022/05/31 11:16:07;;;;;;;;;;;;;;;22.99;31.14;99314.19;1090872;46;19954;-77
2022/05/31 11:17:21;;;;;;;;;;;;;;;23.22;30.79;99312.44;1088268;54;19942;-77
2022/05/31 11:18:36;;;;;;;;;;;;;;;23.00;30.18;99312.28;1088331;54;19934;-78
2022/05/31 11:19:43;;;;;;;;;;;;;;;23.09;30.18;99313.53;1089129;39;20712;-77
2022/05/31 11:20:50;;;;;;;;;;;;;;;23.05;30.23;99313.22;1088206;54;19943;-78
2022/05/31 11:22:02;;;;;;;;;;;;;;;23.23;29.92;99310.56;1088217;54;19966;-76
2022/05/31 11:23:17;;;;;;;;;;;;;;;23.12;29.79;99307.63;1087867;54;19950;-80
2022/05/31 11:24:31;;;;;;;;;;;;;;;22.69;30.93;99325.31;1093286;39;20533;-79
2022/05/31 11:25:49;;;;;;;;;;;;;;;22.68;31.02;99313.63;1088265;54;19942;-79
2022/05/31 11:27:05;;;;;;;;;;;;;;;22.65;30.74;99310.56;1088270;54;20031;-79
2022/05/31 11:28:18;;;;;;;;;;;;;;;22.73;30.79;99310.97;1088302;54;19942;-77
2022/05/31 11:29:33;;;;;;;;;;;;;;;22.81;29.76;99315.22;1088253;54;19927;-78
2022/05/31 11:30:40;;;;;;;;;;;;;;;23.03;29.60;99312.63;1088147;54;19942;-80
2022/05/31 11:31:46;;;;;;;;;;;;;;;23.11;29.32;99314.13;1088276;54;19934;-80
2022/05/31 11:33:05;;;;;;;;;;;;;;;22.95;29.11;99314.94;1088218;54;19927;-78
2022/05/31 11:34:21;;;;;;;;;;;;;;;22.64;28.74;99317.06;1088207;54;19934;-78
2022/05/31 11:35:45;;;;;;;;;;;;;;;22.68;28.78;99310.03;1091148;47;19943;-80
2022/05/31 11:36:52;;;;;;;;;;;;;;;22.53;29.54;99322.31;1088120;54;19942;-77
2022/05/31 11:38:00;;;;;;;;;;;;;;;22.62;29.50;99319.19;1087875;54;19927;-78
2022/05/31 11:39:19;;;;;;;;;;;;;;;22.98;29.16;99314.44;1087938;54;19958;-78
2022/05/31 11:40:35;;;;;;;;;;;;;;;22.96;28.77;99311.13;1087832;54;19950;-79
2022/05/31 11:41:47;;;;;;;;;;;;;;;22.73;28.04;99308.25;1088177;54;19939;-80
2022/05/31 11:43:06;;;;;;;;;;;;;;;22.81;28.20;99319.84;1088139;54;20680;-79
2022/05/31 11:44:25;;;;;;;;;;;;;;;22.63;27.37;99309.97;1088273;54;20030;-78
2022/05/31 11:45:35;;;;;;;;;;;;;;;22.41;27.93;99319.63;1088579;47;19927;-79
2022/05/31 11:46:43;;;;;;;;;;;;;;;22.49;28.07;99317.59;1088057;54;19943;-80
2022/05/31 11:47:51;;;;;;;;;;;;;;;22.75;28.04;99310.75;1088504;47;19950;-78
2022/05/31 11:49:03;;;;;;;;;;;;;;;22.61;28.18;99315.66;1088171;54;19949;-78
2022/05/31 11:50:14;;;;;;;;;;;;;;;22.44;28.47;99310.13;1088203;54;19927;-79
2022/05/31 11:51:25;;;;;;;;;;;;;;;22.42;28.17;99321.28;1088151;54;20006;-78
2022/05/31 11:52:39;;;;;;;;;;;;;;;22.51;28.10;99316.25;1088197;54;19939;-79
2022/05/31 11:53:49;;;;;;;;;;;;;;;22.42;27.92;99317.72;1088708;47;19927;-78
2022/05/31 11:56:27;;;;;;;;;;;;;;;22.57;27.58;99326.22;1087778;54;19943;-82
2022/05/31 11:57:38;;;;;;;;;;;;;;;22.63;28.10;99318.13;1088162;54;19931;-79
2022/05/31 11:58:46;;;;;;;;;;;;;;;22.51;28.43;99316.25;1088152;54;19949;-79
2022/05/31 11:59:50;;;;;;;;;;;;;;;22.83;28.06;99314.97;1088106;54;19946;-78
2022/05/31 12:00:59;;;;;;;;;;;;;;;22.82;28.34;99308.69;1088153;54;19950;-79
2022/05/31 12:02:04;;;;;;;;;;;;;;;22.80;28.57;99315.47;1088190;54;19979;-79
2022/05/31 12:03:12;;;;;;;;;;;;;;;22.90;28.84;99312.94;1088165;54;19949;-79
2022/05/31 12:04:19;;;;;;;;;;;;;;;23.02;28.51;99310.16;1088143;54;19942;-78
2022/05/31 12:05:24;;;;;;;;;;;;;;;22.89;28.98;99309.38;1088098;54;19949;-77
2022/05/31 12:06:35;;;;;;;;;;;;;;;22.88;29.32;99315.06;1088058;54;20006;-78
2022/05/31 12:07:44;;;;;;;;;;;;;;;22.97;29.24;99320.94;1088116;54;20284;-78
2022/05/31 12:08:51;;;;;;;;;;;;;;;22.96;28.90;99311.13;1088323;47;19946;-77
2022/05/31 12:09:58;;;;;;;;;;;;;;;23.16;29.19;99311.47;1088045;54;19997;-80
2022/05/31 12:11:09;;;;;;;;;;;;;;;23.32;29.13;99314.53;1088110;54;19969;-79
2022/05/31 12:12:15;;;;;;;;;;;;;;;23.51;28.92;99298.72;1087852;54;19950;-79
2022/05/31 12:13:17;;;;;;;;;;;;;;;23.51;28.50;99296.84;1087800;54;19949;-81
2022/05/31 12:14:23;;;;;;;;;;;;;;;23.52;28.45;99309.38;1088198;54;19942;-78
2022/05/31 12:15:27;;;;;;;;;;;;;;;23.55;28.70;99307.25;1092696;39;20643;-81
2022/05/31 12:16:31;;;;;;;;;;;;;;;23.51;28.07;99301.47;1089492;47;19950;-78
2022/05/31 12:17:36;;;;;;;;;;;;;;;23.64;28.41;99300.28;1088192;54;20037;-79
2022/05/31 12:18:43;;;;;;;;;;;;;;;23.56;27.22;99308.91;1088166;54;19994;-79
2022/05/31 12:19:52;;;;;;;;;;;;;;;23.38;27.52;99302.63;1088131;54;19950;-80
2022/05/31 12:20:55;;;;;;;;;;;;;;;23.27;27.94;99295.34;1088349;54;19927;-79
2022/05/31 12:22:01;;;;;;;;;;;;;;;23.25;27.70;99309.22;1088477;54;19998;-80
2022/05/31 12:23:06;;;;;;;;;;;;;;;23.05;28.36;99304.19;1091081;39;20451;-83
2022/05/31 12:24:12;;;;;;;;;;;;;;;23.15;28.36;99301.66;1088562;54;19942;-78
2022/05/31 12:25:16;;;;;;;;;;;;;;;23.20;27.72;99299.06;1088446;54;19943;-80
2022/05/31 12:26:28;;;;;;;;;;;;;;;22.95;26.52;99301.31;1088450;54;20018;-80
2022/05/31 12:27:38;;;;;;;;;;;;;;;22.82;26.39;99296.97;1088506;54;20011;-79
2022/05/31 12:28:47;;;;;;;;;;;;;;;22.89;26.66;99303.13;1088247;54;19950;-80
2022/05/31 12:29:53;;;;;;;;;;;;;;;22.72;26.60;99295.69;1088272;39;20585;-81
2022/05/31 12:30:58;;;;;;;;;;;;;;;22.72;26.78;99303.06;1088527;54;19942;-80
2022/05/31 12:32:22;;;;;;;;;;;;;;;22.72;26.97;99300.34;1088170;54;19954;-80
2022/05/31 12:33:41;;;;;;;;;;;;;;;23.01;26.46;99297.59;1088102;54;20025;-78
2022/05/31 12:34:42;;;;;;;;;;;;;;;23.13;26.11;99295.63;1088295;54;19931;-79
2022/05/31 12:35:57;;;;;;;;;;;;;;;22.87;26.08;99292.44;1088328;54;19943;-78
2022/05/31 12:37:00;;;;;;;;;;;;;;;22.69;25.94;99288.03;1088278;54;20626;-78
2022/05/31 12:38:10;;;;;;;;;;;;;;;22.75;25.67;99297.13;1088375;54;19954;-79
2022/05/31 12:39:27;;;;;;;;;;;;;;;22.69;25.47;99298.09;1088281;54;19966;-82
2022/05/31 12:40:41;;;;;;;;;;;;;;;22.75;25.71;99294.41;1089193;46;19998;-80
2022/05/31 12:41:53;;;;;;;;;;;;;;;22.97;24.99;99296.41;1087952;54;20649;-78
2022/05/31 12:42:57;;;;;;;;;;;;;;;22.98;25.51;99293.47;1088129;54;19942;-84
2022/05/31 12:43:59;;;;;;;;;;;;;;;22.90;25.96;99297.41;1088046;54;19945;-87
2022/05/31 12:45:18;;;;;;;;;;;;;;;22.88;25.88;99294.09;1088057;54;20027;-85
2022/05/31 12:46:27;;;;;;;;;;;;;;;22.90;25.94;99294.69;1088025;54;19942;-84
2022/05/31 12:47:33;;;;;;;;;;;;;;;22.86;26.16;99293.50;1088457;54;19943;-85
2022/05/31 12:48:49;;;;;;;;;;;;;;;22.79;26.41;99289.28;1088590;54;19982;-83
2022/05/31 12:49:54;;;;;;;;;;;;;;;23.04;26.52;99291.66;1092353;46;19943;-83
2022/05/31 12:51:11;;;;;;;;;;;;;;;23.21;26.73;99291.69;1088460;54;19927;-84
2022/05/31 12:53:59;;;;;;;;;;;;;;;23.43;26.67;99289.06;1088334;54;19946;-85
2022/05/31 12:55:04;;;;;;;;;;;;;;;23.62;26.95;99289.63;1088442;54;19939;-84
2022/05/31 12:56:09;;;;;;;;;;;;;;;23.67;26.81;99288.88;1088635;46;19927;-80